createdAt,value
2019-04-07T00:00:59.865Z,98830.87
2019-04-07T00:03:26.756Z,98833.59
2019-04-07T00:05:53.968Z,98830.43
2019-04-07T00:08:21.549Z,98833.98
2019-04-07T00:10:48.680Z,98831.19
2019-04-07T00:13:17.317Z,98827.59
2019-04-07T00:15:44.176Z,98832.57
2019-04-07T00:18:12.134Z,98828.09
2019-04-07T00:20:39.430Z,98830.65
2019-04-07T00:23:06.297Z,98831.17
2019-04-07T00:25:33.323Z,98834.37
2019-04-07T00:28:01.862Z,98834.95
2019-04-07T00:30:30.304Z,98834.39
2019-04-07T00:32:57.320Z,98840.50
2019-04-07T00:35:30.448Z,98842.68
2019-04-07T00:37:54.176Z,98851.27
2019-04-07T00:40:21.046Z,98844.24
2019-04-07T00:42:49.088Z,98846.17
2019-04-07T00:45:16.389Z,98848.79
2019-04-07T00:47:44.019Z,98845.46
2019-04-07T00:50:11.944Z,98843.34
2019-04-07T00:52:39.146Z,98846.73
2019-04-07T00:55:06.632Z,98847.95
2019-04-07T00:57:33.545Z,98850.81
2019-04-07T01:00:00.524Z,98847.33
2019-04-07T01:02:28.533Z,98847.39
2019-04-07T01:04:56.152Z,98852.99
2019-04-07T01:07:23.484Z,98852.71
2019-04-07T01:09:50.762Z,98852.47
2019-04-07T01:12:18.257Z,98852.56
2019-04-07T01:14:45.208Z,98848.57
2019-04-07T01:17:12.600Z,98853.67
2019-04-07T01:19:39.813Z,98850.18
2019-04-07T01:22:06.801Z,98856.68
2019-04-07T01:24:34.136Z,98859.47
2019-04-07T01:27:01.117Z,98856.14
2019-04-07T01:29:28.046Z,98855.05
2019-04-07T01:31:55.965Z,98856.94
2019-04-07T01:34:23.974Z,98857.60
2019-04-07T01:36:51.321Z,98857.60
2019-04-07T01:39:18.307Z,98859.28
2019-04-07T01:41:45.341Z,98855.16
2019-04-07T01:44:12.879Z,98859.30
2019-04-07T01:46:40.351Z,98854.06
2019-04-07T01:49:09.379Z,98853.78
2019-04-07T01:51:36.395Z,98855.95
2019-04-07T01:54:03.387Z,98855.78
2019-04-07T01:56:31.246Z,98855.09
2019-04-07T01:58:58.308Z,98856.54
2019-04-07T02:01:26.166Z,98857.34
2019-04-07T02:03:53.661Z,98857.46
2019-04-07T02:06:21.097Z,98854.66
2019-04-07T02:08:48.375Z,98856.36
2019-04-07T02:11:15.389Z,98855.98
2019-04-07T02:13:42.909Z,98858.13
2019-04-07T02:16:10.331Z,98854.42
2019-04-07T02:18:37.844Z,98857.08
2019-04-07T02:21:05.406Z,98853.80
2019-04-07T02:23:32.721Z,98858.84
2019-04-07T02:26:00.165Z,98861.02
2019-04-07T02:28:27.712Z,98864.36
2019-04-07T02:30:54.683Z,98866.29
2019-04-07T02:33:22.609Z,98857.43
2019-04-07T02:35:50.448Z,98863.07
2019-04-07T02:38:17.897Z,98861.23
2019-04-07T02:40:45.897Z,98866.37
2019-04-07T02:43:13.936Z,98862.67
2019-04-07T02:45:41.329Z,98865.89
2019-04-07T02:48:08.619Z,98868.22
2019-04-07T02:50:35.520Z,98864.28
2019-04-07T02:53:02.874Z,98866.02
2019-04-07T02:55:30.121Z,98867.43
2019-04-07T02:57:58.113Z,98864.88
2019-04-07T03:00:25.285Z,98867.43
2019-04-07T03:02:52.236Z,98869.49
2019-04-07T03:05:19.832Z,98873.59
2019-04-07T03:07:47.482Z,98872.19
2019-04-07T03:10:15.741Z,98875.16
2019-04-07T03:12:43.435Z,98876.28
2019-04-07T03:15:11.102Z,98876.80
2019-04-07T03:17:38.432Z,98874.30
2019-04-07T03:20:05.392Z,98880.84
2019-04-07T03:22:33.225Z,98874.27
2019-04-07T03:25:00.202Z,98873.68
2019-04-07T03:27:28.054Z,98873.63
2019-04-07T03:29:55.437Z,98873.47
2019-04-07T03:32:26.013Z,98879.34
2019-04-07T03:34:52.179Z,98877.16
2019-04-07T03:37:33.318Z,98872.17
2019-04-07T03:39:49.196Z,98874.84
2019-04-07T03:42:16.301Z,98875.05
2019-04-07T03:44:43.243Z,98870.02
2019-04-07T03:47:10.307Z,98867.09
2019-04-07T03:49:37.969Z,98861.59
2019-04-07T03:52:05.726Z,98865.23
2019-04-07T03:54:33.571Z,98870.65
2019-04-07T03:57:00.641Z,98862.47
2019-04-07T03:59:28.927Z,98864.86
2019-04-07T04:01:55.934Z,98860.14
2019-04-07T04:04:22.800Z,98861.42
2019-04-07T04:06:50.033Z,98859.88
2019-04-07T04:09:17.421Z,98860.19
2019-04-07T04:11:45.190Z,98864.45
2019-04-07T04:14:13.276Z,98863.61
2019-04-07T04:16:40.449Z,98866.56
2019-04-07T04:19:08.401Z,98862.85
2019-04-07T04:21:36.383Z,98866.84
2019-04-07T04:24:04.235Z,98861.38
2019-04-07T04:26:31.812Z,98866.47
2019-04-07T04:28:59.782Z,98868.17
2019-04-07T04:31:27.389Z,98868.53
2019-04-07T04:33:54.547Z,98870.77
2019-04-07T04:36:22.181Z,98870.17
2019-04-07T04:38:50.179Z,98865.09
2019-04-07T04:41:17.269Z,98871.93
2019-04-07T04:43:45.217Z,98865.98
2019-04-07T04:46:12.739Z,98871.40
2019-04-07T04:48:40.971Z,98873.36
2019-04-07T04:51:08.579Z,98878.81
2019-04-07T04:53:35.617Z,98878.96
2019-04-07T04:56:02.993Z,98879.16
2019-04-07T04:58:30.324Z,98878.30
2019-04-07T05:00:57.864Z,98877.69
2019-04-07T05:03:25.048Z,98884.77
2019-04-07T05:05:52.414Z,98887.41
2019-04-07T05:08:20.489Z,98893.03
2019-04-07T05:10:48.273Z,98894.18
2019-04-07T05:13:15.986Z,98889.09
2019-04-07T05:15:43.493Z,98891.64
2019-04-07T05:18:10.794Z,98892.34
2019-04-07T05:20:37.845Z,98895.58
2019-04-07T05:23:05.248Z,98894.89
2019-04-07T05:25:32.751Z,98902.95
2019-04-07T05:28:00.136Z,98903.95
2019-04-07T05:30:27.088Z,98905.02
2019-04-07T05:32:54.529Z,98900.81
2019-04-07T05:35:22.460Z,98908.19
2019-04-07T05:38:00.786Z,98916.52
2019-04-07T05:40:19.077Z,98919.84
2019-04-07T05:42:46.591Z,98925.05
2019-04-07T05:45:13.568Z,98926.75
2019-04-07T05:47:43.645Z,98928.28
2019-04-07T05:50:09.923Z,98922.48
2019-04-07T05:52:39.827Z,98925.41
2019-04-07T05:55:05.628Z,98926.34
2019-04-07T05:57:34.668Z,98930.73
2019-04-07T06:00:01.390Z,98928.91
2019-04-07T06:02:31.244Z,98932.28
2019-04-07T06:04:58.650Z,98933.98
2019-04-07T06:07:28.776Z,98930.53
2019-04-07T06:09:54.477Z,98932.78
2019-04-07T06:12:21.601Z,98929.94
2019-04-07T06:14:48.539Z,98930.66
2019-04-07T06:17:16.272Z,98928.45
2019-04-07T06:19:43.590Z,98921.19
2019-04-07T06:22:11.100Z,98928.75
2019-04-07T06:24:38.386Z,98929.90
2019-04-07T06:27:06.478Z,98933.75
2019-04-07T06:29:33.449Z,98935.92
2019-04-07T06:32:03.689Z,98937.70
2019-04-07T06:34:29.038Z,98933.22
2019-04-07T06:36:56.552Z,98933.59
2019-04-07T06:39:24.133Z,98933.38
2019-04-07T06:41:51.351Z,98937.72
2019-04-07T06:44:20.906Z,98936.44
2019-04-07T06:46:46.985Z,98937.17
2019-04-07T06:49:15.036Z,98934.19
2019-04-07T06:51:42.402Z,98931.72
2019-04-07T06:54:10.146Z,98929.61
2019-04-07T06:56:37.901Z,98940.66
2019-04-07T06:59:05.892Z,98936.02
2019-04-07T07:01:32.756Z,98942.73
2019-04-07T07:03:59.625Z,98935.22
2019-04-07T07:06:26.822Z,98938.06
2019-04-07T07:08:55.663Z,98937.53
2019-04-07T07:11:28.772Z,98937.19
2019-04-07T07:13:52.077Z,98941.02
2019-04-07T07:16:19.587Z,98941.81
2019-04-07T07:18:47.069Z,98945.50
2019-04-07T07:21:14.478Z,98948.77
2019-04-07T07:23:44.847Z,98940.52
2019-04-07T07:26:10.029Z,98951.34
2019-04-07T07:28:36.889Z,98946.42
2019-04-07T07:31:05.398Z,98954.13
2019-04-07T07:33:33.436Z,98955.88
2019-04-07T07:36:00.412Z,98955.38
2019-04-07T07:38:31.096Z,98952.19
2019-04-07T07:40:55.853Z,98949.54
2019-04-07T07:43:22.821Z,98959.09
2019-04-07T07:45:50.181Z,98954.72
2019-04-07T07:48:17.515Z,98956.19
2019-04-07T07:50:44.664Z,98955.63
2019-04-07T07:53:11.555Z,98961.30
2019-04-07T07:55:38.642Z,98955.66
2019-04-07T07:58:06.121Z,98960.36
2019-04-07T08:00:39.941Z,98965.50
2019-04-07T08:03:04.860Z,98968.98
2019-04-07T08:05:33.440Z,98960.42
2019-04-07T08:08:00.626Z,98962.77
2019-04-07T08:10:27.912Z,98964.41
2019-04-07T08:12:54.907Z,98963.82
2019-04-07T08:15:25.441Z,98966.03
2019-04-07T08:17:50.933Z,98961.33
2019-04-07T08:20:18.528Z,98961.44
2019-04-07T08:22:46.099Z,98964.96
2019-04-07T08:25:13.088Z,98960.88
2019-04-07T08:27:40.886Z,98967.77
2019-04-07T08:30:11.837Z,98966.53
2019-04-07T08:32:37.806Z,98963.48
2019-04-07T08:35:05.683Z,98962.91
2019-04-07T08:37:34.280Z,98957.20
2019-04-07T08:40:04.437Z,98953.78
2019-04-07T08:42:31.444Z,98954.20
2019-04-07T08:44:59.688Z,98958.95
2019-04-07T08:47:27.185Z,98956.73
2019-04-07T08:49:56.908Z,98954.66
2019-04-07T08:52:23.420Z,98957.40
2019-04-07T08:54:52.407Z,98954.47
2019-04-07T08:57:19.676Z,98955.17
2019-04-07T08:59:46.918Z,98954.34
2019-04-07T09:02:14.800Z,98953.09
2019-04-07T09:04:44.287Z,98953.23
2019-04-07T09:07:10.846Z,98957.89
2019-04-07T09:09:44.884Z,98956.22
2019-04-07T09:12:07.061Z,98951.34
2019-04-07T09:14:37.840Z,98954.56
2019-04-07T09:17:03.489Z,98954.88
2019-04-07T09:19:30.990Z,98956.20
2019-04-07T09:21:58.051Z,98963.11
2019-04-07T09:24:28.150Z,98910.08
2019-04-07T09:26:53.477Z,98959.30
2019-04-07T09:29:21.021Z,98955.67
2019-04-07T09:31:48.296Z,98950.44
2019-04-07T09:34:18.915Z,98951.55
2019-04-07T09:36:47.703Z,98948.63
2019-04-07T09:39:13.333Z,98950.09
2019-04-07T09:41:42.668Z,98950.67
2019-04-07T09:44:09.193Z,98955.54
2019-04-07T09:46:36.625Z,98951.73
2019-04-07T09:49:04.589Z,98948.36
2019-04-07T09:51:32.068Z,98946.53
2019-04-07T09:54:00.269Z,98949.50
2019-04-07T09:56:31.405Z,98951.80
2019-04-07T09:58:57.716Z,98948.70
2019-04-07T10:01:27.786Z,98948.93
2019-04-07T10:03:53.613Z,98953.41
2019-04-07T10:06:20.881Z,98953.33
2019-04-07T10:08:47.899Z,98946.01
2019-04-07T10:11:14.843Z,98945.39
2019-04-07T10:13:41.735Z,98944.91
2019-04-07T10:16:09.998Z,98952.09
2019-04-07T10:18:38.298Z,98942.06
2019-04-07T10:21:05.442Z,98948.67
2019-04-07T10:23:32.634Z,98951.42
2019-04-07T10:26:00.465Z,98947.88
2019-04-07T10:28:28.723Z,98952.00
2019-04-07T10:30:56.734Z,98950.27
2019-04-07T10:33:27.253Z,98944.59
2019-04-07T10:35:54.942Z,98943.48
2019-04-07T10:38:21.931Z,98941.84
2019-04-07T10:40:49.179Z,98947.34
2019-04-07T10:43:16.114Z,98949.08
2019-04-07T10:45:43.779Z,98949.16
2019-04-07T10:48:11.124Z,98937.69
2019-04-07T10:50:38.624Z,98937.98
2019-04-07T10:53:06.829Z,98935.51
2019-04-07T10:55:34.153Z,98938.21
2019-04-07T10:58:02.943Z,98931.75
2019-04-07T11:00:30.270Z,98932.40
2019-04-07T11:02:57.320Z,98927.56
2019-04-07T11:05:24.468Z,98930.66
2019-04-07T11:07:51.908Z,98923.71
2019-04-07T11:10:30.562Z,98921.14
2019-04-07T11:12:48.004Z,98918.98
2019-04-07T11:15:15.799Z,98927.53
2019-04-07T11:17:43.685Z,98922.27
2019-04-07T11:20:11.604Z,98915.84
2019-04-07T11:22:38.573Z,98921.02
2019-04-07T11:25:06.401Z,98920.45
2019-04-07T11:27:35.360Z,98918.05
2019-04-07T11:30:02.385Z,98909.27
2019-04-07T11:32:30.515Z,98915.53
2019-04-07T11:34:58.426Z,98916.23
2019-04-07T11:37:25.541Z,98917.03
2019-04-07T11:39:53.458Z,98911.92
2019-04-07T11:42:20.485Z,98907.53
2019-04-07T11:44:47.349Z,98908.45
2019-04-07T11:47:15.296Z,98906.88
2019-04-07T11:49:43.887Z,98904.94
2019-04-07T11:52:11.503Z,98911.63
2019-04-07T11:54:41.451Z,98912.55
2019-04-07T11:57:08.689Z,98909.64
2019-04-07T11:59:35.946Z,98901.27
2019-04-07T12:02:03.644Z,98900.07
2019-04-07T12:04:31.666Z,98898.78
2019-04-07T12:06:59.063Z,98899.89
2019-04-07T12:09:26.439Z,98909.09
2019-04-07T12:11:53.810Z,98900.27
2019-04-07T12:14:21.128Z,98902.50
2019-04-07T12:16:50.369Z,98905.07
2019-04-07T12:19:17.439Z,98904.69
2019-04-07T12:21:45.043Z,98904.03
2019-04-07T12:24:12.419Z,98903.77
2019-04-07T12:26:42.146Z,98905.23
2019-04-07T12:29:08.008Z,98901.02
2019-04-07T12:31:34.869Z,98894.03
2019-04-07T12:34:01.738Z,98893.55
2019-04-07T12:36:30.775Z,98895.04
2019-04-07T12:38:57.487Z,98899.55
2019-04-07T12:41:24.552Z,98896.98
2019-04-07T12:43:51.954Z,98888.78
2019-04-07T12:46:19.450Z,98887.59
2019-04-07T12:48:46.937Z,98889.80
2019-04-07T12:51:15.002Z,98888.31
2019-04-07T12:53:42.220Z,98878.88
2019-04-07T12:56:09.705Z,98878.58
2019-04-07T12:58:39.289Z,98876.66
2019-04-07T13:01:14.030Z,98877.67
2019-04-07T13:03:34.956Z,98867.58
2019-04-07T13:06:01.965Z,98876.03
2019-04-07T13:08:28.848Z,98864.45
2019-04-07T13:10:55.830Z,98870.42
2019-04-07T13:13:26.916Z,98874.92
2019-04-07T13:15:52.117Z,98863.52
2019-04-07T13:18:19.417Z,98868.76
2019-04-07T13:20:49.225Z,98862.23
2019-04-07T13:23:15.502Z,98854.16
2019-04-07T13:25:42.884Z,98849.91
2019-04-07T13:28:10.830Z,98850.39
2019-04-07T13:30:39.130Z,98854.16
2019-04-07T13:33:06.431Z,98850.56
2019-04-07T13:35:33.584Z,98843.95
2019-04-07T13:38:01.219Z,98842.47
2019-04-07T13:40:28.232Z,98844.42
2019-04-07T13:42:59.093Z,98850.67
2019-04-07T13:45:24.772Z,98838.99
2019-04-07T13:47:52.455Z,98845.33
2019-04-07T13:50:19.752Z,98841.11
2019-04-07T13:52:50.114Z,98838.82
2019-04-07T13:55:15.328Z,98838.19
2019-04-07T13:57:42.864Z,98834.13
2019-04-07T14:00:12.986Z,98836.42
2019-04-07T14:02:38.973Z,98835.04
2019-04-07T14:05:09.007Z,98837.16
2019-04-07T14:07:35.202Z,98833.19
2019-04-07T14:10:04.376Z,98838.72
2019-04-07T14:12:33.416Z,98836.89
2019-04-07T14:15:00.197Z,98836.34
2019-04-07T14:17:27.324Z,98832.09
2019-04-07T14:19:55.144Z,98827.88
2019-04-07T14:22:23.179Z,98833.47
2019-04-07T14:24:50.242Z,98828.42
2019-04-07T14:27:17.179Z,98832.30
2019-04-07T14:29:44.903Z,98831.20
2019-04-07T14:32:12.010Z,98838.17
2019-04-07T14:34:40.182Z,98833.20
2019-04-07T14:37:07.362Z,98826.97
2019-04-07T14:39:34.652Z,98831.34
2019-04-07T14:42:06.350Z,98835.02
2019-04-07T14:44:30.505Z,98837.59
2019-04-07T14:46:57.597Z,98831.90
2019-04-07T14:49:27.306Z,98830.88
2019-04-07T14:51:53.560Z,98835.21
2019-04-07T14:54:20.640Z,98833.73
2019-04-07T14:56:48.790Z,98831.90
2019-04-07T14:59:16.175Z,98834.73
2019-04-07T15:01:43.413Z,98840.17
2019-04-07T15:04:10.836Z,98831.31
2019-04-07T15:06:39.493Z,98837.66
2019-04-07T15:09:07.807Z,98840.42
2019-04-07T15:11:35.844Z,98837.80
2019-04-07T15:14:04.068Z,98838.09
2019-04-07T15:16:31.735Z,98835.42
2019-04-07T15:18:58.783Z,98831.91
2019-04-07T15:21:25.690Z,98840.38
2019-04-07T15:23:52.985Z,98831.20
2019-04-07T15:26:20.381Z,98835.52
2019-04-07T15:28:47.696Z,98840.67
2019-04-07T15:31:17.484Z,98839.03
2019-04-07T15:33:43.567Z,98841.22
2019-04-07T15:36:10.761Z,98845.17
2019-04-07T15:38:40.379Z,98840.96
2019-04-07T15:41:09.896Z,98836.75
2019-04-07T15:43:35.357Z,98846.50
2019-04-07T15:46:03.327Z,98845.86
2019-04-07T15:48:30.781Z,98846.41
2019-04-07T15:51:00.870Z,98844.73
2019-04-07T15:53:26.383Z,98844.03
2019-04-07T15:56:01.976Z,98844.41
2019-04-07T15:58:22.631Z,98844.92
2019-04-07T16:00:49.542Z,98850.47
2019-04-07T16:03:16.957Z,98851.75
2019-04-07T16:05:46.408Z,98847.53
2019-04-07T16:08:13.708Z,98849.91
2019-04-07T16:10:41.362Z,98856.52
2019-04-07T16:13:08.900Z,98859.67
2019-04-07T16:15:37.269Z,98857.09
2019-04-07T16:18:07.219Z,98857.44
2019-04-07T16:20:37.971Z,98864.06
2019-04-07T16:23:02.549Z,98865.19
2019-04-07T16:25:30.223Z,98866.64
2019-04-07T16:27:57.205Z,98872.24
2019-04-07T16:30:24.808Z,98868.73
2019-04-07T16:32:52.410Z,98872.70
2019-04-07T16:35:20.262Z,98875.84
2019-04-07T16:37:47.905Z,98872.91
2019-04-07T16:40:14.866Z,98867.94
2019-04-07T16:42:45.632Z,98873.28
2019-04-07T16:45:13.758Z,98872.06
2019-04-07T16:47:39.300Z,98871.97
2019-04-07T16:50:06.541Z,98872.52
2019-04-07T16:52:34.335Z,98869.77
2019-04-07T16:55:02.337Z,98876.09
2019-04-07T16:57:32.559Z,98871.42
2019-04-07T16:59:59.397Z,98872.33
2019-04-07T17:02:26.539Z,98873.72
2019-04-07T17:04:54.643Z,98872.52
2019-04-07T17:07:22.442Z,98872.70
2019-04-07T17:09:50.873Z,98875.64
2019-04-07T17:12:18.481Z,98877.12
2019-04-07T17:14:45.961Z,98877.12
2019-04-07T17:17:16.782Z,98874.55
2019-04-07T17:19:41.879Z,98875.09
2019-04-07T17:22:11.863Z,98879.50
2019-04-07T17:24:37.864Z,98884.46
2019-04-07T17:27:09.384Z,98888.52
2019-04-07T17:29:34.626Z,98879.96
2019-04-07T17:32:02.572Z,98887.77
2019-04-07T17:34:30.490Z,98886.48
2019-04-07T17:36:57.693Z,98886.77
2019-04-07T17:39:24.782Z,98889.80
2019-04-07T17:41:52.812Z,98896.96
2019-04-07T17:44:22.398Z,98896.44
2019-04-07T17:46:49.152Z,98896.50
2019-04-07T17:49:16.692Z,98898.64
2019-04-07T17:51:44.105Z,98902.57
2019-04-07T17:54:12.213Z,98901.38
2019-04-07T17:56:41.858Z,98905.23
2019-04-07T17:59:14.142Z,98908.37
2019-04-07T18:01:38.961Z,98903.50
2019-04-07T18:04:06.004Z,98906.97
2019-04-07T18:06:33.462Z,98905.23
2019-04-07T18:09:07.691Z,98912.02
2019-04-07T18:11:32.835Z,98911.85
2019-04-07T18:14:01.095Z,98915.23
2019-04-07T18:16:28.784Z,98919.28
2019-04-07T18:18:58.311Z,98921.94
2019-04-07T18:21:25.166Z,98923.97
2019-04-07T18:23:55.632Z,98921.75
2019-04-07T18:26:21.746Z,98929.29
2019-04-07T18:28:52.184Z,98927.53
2019-04-07T18:31:18.234Z,98933.03
2019-04-07T18:33:47.513Z,98934.41
2019-04-07T18:36:13.772Z,98940.13
2019-04-07T18:38:45.670Z,98944.63
2019-04-07T18:41:11.087Z,98947.86
2019-04-07T18:43:48.720Z,98946.67
2019-04-07T18:46:07.205Z,98948.22
2019-04-07T18:48:34.329Z,98948.55
2019-04-07T18:51:01.612Z,98951.13
2019-04-07T18:53:28.718Z,98954.44
2019-04-07T18:55:55.780Z,98959.14
2019-04-07T18:58:22.966Z,98962.52
2019-04-07T19:00:50.986Z,98960.42
2019-04-07T19:03:20.517Z,98963.89
2019-04-07T19:05:46.861Z,98963.63
2019-04-07T19:08:17.367Z,98958.75
2019-04-07T19:10:46.493Z,98960.66
2019-04-07T19:13:17.388Z,98968.16
2019-04-07T19:15:45.401Z,98961.91
2019-04-07T19:18:11.876Z,98969.45
2019-04-07T19:20:40.694Z,98968.79
2019-04-07T19:23:07.804Z,98973.54
2019-04-07T19:25:35.613Z,98974.55
2019-04-07T19:28:04.687Z,98974.91
2019-04-07T19:30:31.186Z,98972.52
2019-04-07T19:32:58.142Z,98980.58
2019-04-07T19:35:25.108Z,98970.48
2019-04-07T19:37:53.939Z,98970.65
2019-04-07T19:40:23.580Z,98977.35
2019-04-07T19:42:50.843Z,98980.94
2019-04-07T19:45:22.214Z,98979.13
2019-04-07T19:47:48.045Z,98982.80
2019-04-07T19:50:16.905Z,98973.72
2019-04-07T19:52:43.936Z,98975.92
2019-04-07T19:55:10.833Z,98977.30
2019-04-07T19:57:38.506Z,98979.87
2019-04-07T20:00:05.477Z,98982.63
2019-04-07T20:02:36.388Z,98983.69
2019-04-07T20:05:01.995Z,98979.34
2019-04-07T20:07:31.208Z,98981.81
2019-04-07T20:09:58.804Z,98984.11
2019-04-07T20:12:25.826Z,98985.84
2019-04-07T20:15:01.328Z,98983.80
2019-04-07T20:17:24.467Z,98979.02
2019-04-07T20:19:49.873Z,98978.66
2019-04-07T20:22:17.539Z,98977.55
2019-04-07T20:24:47.384Z,98980.20
2019-04-07T20:27:13.455Z,98978.66
2019-04-07T20:29:41.925Z,98983.03
2019-04-07T20:32:09.700Z,98982.11
2019-04-07T20:34:40.109Z,98980.16
2019-04-07T20:37:05.783Z,98982.64
2019-04-07T20:39:34.421Z,98980.08
2019-04-07T20:42:01.501Z,98985.61
2019-04-07T20:44:33.676Z,98983.48
2019-04-07T20:46:59.318Z,98985.21
2019-04-07T20:49:26.474Z,98977.41
2019-04-07T20:51:54.482Z,98978.41
2019-04-07T20:54:21.829Z,98980.05
2019-04-07T20:56:49.750Z,98979.22
2019-04-07T20:59:16.784Z,98981.88
2019-04-07T21:04:22.430Z,98986.25
2019-04-07T21:06:49.611Z,98991.12
2019-04-07T21:09:17.428Z,98985.62
2019-04-07T21:11:47.307Z,98989.70
2019-04-07T21:14:15.488Z,98986.68
2019-04-07T21:16:43.007Z,98986.16
2019-04-07T21:19:11.292Z,98987.34
2019-04-07T21:21:41.622Z,98990.84
2019-04-07T21:24:07.652Z,98987.34
2019-04-07T21:26:35.793Z,98983.14
2019-04-07T21:29:07.338Z,98983.27
2019-04-07T21:31:31.795Z,98985.20
2019-04-07T21:33:59.240Z,98982.38
2019-04-07T21:36:26.240Z,98992.06
2019-04-07T21:38:55.088Z,98989.05
2019-04-07T21:41:22.162Z,98985.20
2019-04-07T21:43:49.063Z,98986.48
2019-04-07T21:46:20.153Z,98986.40
2019-04-07T21:48:45.393Z,98984.50
2019-04-07T21:51:15.442Z,98986.76
2019-04-07T21:53:41.045Z,98983.16
2019-04-07T21:56:08.103Z,98985.73
2019-04-07T21:58:35.697Z,98985.89
2019-04-07T22:01:05.450Z,98982.30
2019-04-07T22:03:31.300Z,98976.28
2019-04-07T22:05:59.371Z,98983.40
2019-04-07T22:08:26.385Z,98981.92
2019-04-07T22:10:53.653Z,98985.90
2019-04-07T22:13:21.667Z,98987.19
2019-04-07T22:15:55.599Z,98991.88
2019-04-07T22:18:17.624Z,98990.50
2019-04-07T22:20:45.359Z,98989.47
2019-04-07T22:23:12.551Z,98987.51
2019-04-07T22:25:40.126Z,98992.05
2019-04-07T22:28:07.826Z,98992.61
2019-04-07T22:30:39.255Z,98988.16
2019-04-07T22:33:04.167Z,98993.61
2019-04-07T22:35:31.973Z,98990.36
2019-04-07T22:37:59.004Z,98994.22
2019-04-07T22:40:26.640Z,98994.06
2019-04-07T22:42:54.142Z,98995.26
2019-04-07T22:45:24.370Z,98994.52
2019-04-07T22:47:52.380Z,98995.88
2019-04-07T22:50:18.694Z,98999.33
2019-04-07T22:52:49.052Z,98991.36
2019-04-07T22:55:14.490Z,98994.00
2019-04-07T22:57:41.617Z,98995.11
2019-04-07T23:00:08.720Z,98996.55
2019-04-07T23:02:38.089Z,99000.27
2019-04-07T23:05:05.115Z,99002.80
2019-04-07T23:07:32.065Z,98993.22
2019-04-07T23:09:59.029Z,98989.16
2019-04-07T23:12:26.568Z,99000.30
2019-04-07T23:14:53.581Z,99000.08
2019-04-07T23:17:20.543Z,98994.27
2019-04-07T23:19:48.319Z,98997.42
2019-04-07T23:22:15.912Z,99001.34
2019-04-07T23:24:43.210Z,98999.48
2019-04-07T23:27:10.419Z,98996.85
2019-04-07T23:29:37.510Z,99001.42
2019-04-07T23:32:06.045Z,99003.77
2019-04-07T23:34:35.179Z,99005.93
2019-04-07T23:37:03.536Z,99014.52
2019-04-07T23:39:30.788Z,99015.22
2019-04-07T23:41:58.586Z,99018.80
2019-04-07T23:44:25.613Z,99018.87
2019-04-07T23:46:53.010Z,99013.47
2019-04-07T23:49:22.437Z,99018.40
2019-04-07T23:51:49.544Z,99019.89
2019-04-07T23:54:16.864Z,99013.66
2019-04-07T23:56:43.803Z,99017.92
2019-04-07T23:59:10.697Z,99016.02
